createdAt,value
2023-05-19T00:00:17.368Z,67.33
2023-05-19T00:01:17.439Z,67.19
2023-05-19T00:02:17.380Z,67.01
2023-05-19T00:03:17.526Z,67.12
2023-05-19T00:04:17.358Z,67.18
2023-05-19T00:05:17.354Z,67.16
2023-05-19T00:06:17.427Z,67.33
2023-05-19T00:07:17.355Z,67.03
2023-05-19T00:08:17.363Z,67.16
2023-05-19T00:09:17.355Z,67.28
2023-05-19T00:10:17.349Z,67.21
2023-05-19T00:11:17.355Z,66.99
2023-05-19T00:12:17.369Z,66.54
2023-05-19T00:13:17.342Z,66.66
2023-05-19T00:14:17.364Z,66.70
2023-05-19T00:15:17.329Z,66.60
2023-05-19T00:16:17.406Z,66.50
2023-05-19T00:17:17.332Z,66.53
2023-05-19T00:18:17.334Z,66.48
2023-05-19T00:19:17.457Z,66.51
2023-05-19T00:20:17.334Z,66.29
2023-05-19T00:21:17.329Z,66.51
2023-05-19T00:22:17.343Z,66.50
2023-05-19T00:23:17.325Z,66.33
2023-05-19T00:24:17.323Z,66.16
2023-05-19T00:25:17.313Z,66.09
2023-05-19T00:26:17.313Z,66.06
2023-05-19T00:27:17.310Z,66.04
2023-05-19T00:28:17.333Z,66.20
2023-05-19T00:29:17.299Z,66.12
2023-05-19T00:30:17.287Z,65.93
2023-05-19T00:31:17.400Z,66.01
2023-05-19T00:32:17.433Z,65.74
2023-05-19T00:33:17.422Z,65.59
2023-05-19T00:34:17.464Z,65.26
2023-05-19T00:35:17.562Z,65.32
2023-05-19T00:36:17.554Z,65.59
2023-05-19T00:37:17.543Z,65.43
2023-05-19T00:38:17.550Z,65.37
2023-05-19T00:39:17.607Z,65.41
2023-05-19T00:40:17.626Z,65.36
2023-05-19T00:41:17.623Z,65.85
2023-05-19T00:42:17.672Z,66.26
2023-05-19T00:43:17.705Z,65.82
2023-05-19T00:44:17.778Z,65.65
2023-05-19T00:45:17.773Z,65.81
2023-05-19T00:46:17.775Z,65.76
2023-05-19T00:47:17.735Z,65.79
2023-05-19T00:48:16.740Z,65.70
2023-05-19T00:49:17.748Z,65.55
2023-05-19T00:50:17.771Z,65.97
2023-05-19T00:51:17.837Z,66.05
2023-05-19T00:52:17.853Z,65.76
2023-05-19T00:53:17.887Z,65.50
2023-05-19T00:54:17.856Z,65.38
2023-05-19T00:55:17.874Z,65.46
2023-05-19T00:56:17.869Z,65.37
2023-05-19T00:57:17.865Z,65.19
2023-05-19T00:58:17.873Z,65.17
2023-05-19T00:59:17.887Z,64.97
2023-05-19T01:00:17.961Z,64.87
2023-05-19T01:01:18.054Z,64.99
2023-05-19T01:02:18.016Z,64.65
2023-05-19T01:03:18.146Z,64.62
2023-05-19T01:04:18.066Z,64.53
2023-05-19T01:05:18.090Z,64.51
2023-05-19T01:06:18.099Z,64.63
2023-05-19T01:07:18.091Z,64.69
2023-05-19T01:08:18.097Z,64.72
2023-05-19T01:09:18.088Z,64.75
2023-05-19T01:10:18.119Z,64.85
2023-05-19T01:11:18.153Z,64.90
2023-05-19T01:12:18.169Z,65.34
2023-05-19T01:13:18.567Z,65.58
2023-05-19T01:14:18.211Z,65.38
2023-05-19T01:15:18.218Z,65.55
2023-05-19T01:16:18.302Z,65.69
2023-05-19T01:17:18.234Z,65.48
2023-05-19T01:18:18.258Z,65.55
2023-05-19T01:19:18.341Z,65.60
2023-05-19T01:20:18.269Z,66.17
2023-05-19T01:21:18.286Z,65.75
2023-05-19T01:22:18.265Z,65.78
2023-05-19T01:23:18.302Z,65.86
2023-05-19T01:24:18.359Z,65.60
2023-05-19T01:25:18.410Z,65.52
2023-05-19T01:26:18.434Z,65.48
2023-05-19T01:27:18.456Z,65.42
2023-05-19T01:28:18.496Z,65.39
2023-05-19T01:29:18.535Z,65.57
2023-05-19T01:30:18.557Z,65.58
2023-05-19T01:31:18.657Z,65.61
2023-05-19T01:32:18.691Z,65.50
2023-05-19T01:33:18.608Z,65.38
2023-05-19T01:34:18.634Z,65.32
2023-05-19T01:35:18.638Z,65.52
2023-05-19T01:36:18.659Z,65.76
2023-05-19T01:37:18.684Z,65.80
2023-05-19T01:38:18.722Z,65.77
2023-05-19T01:39:18.692Z,66.07
2023-05-19T01:40:18.705Z,65.88
2023-05-19T01:41:18.712Z,65.87
2023-05-19T01:42:18.723Z,66.02
2023-05-19T01:43:18.734Z,65.86
2023-05-19T01:44:18.757Z,65.72
2023-05-19T01:45:18.791Z,65.99
2023-05-19T01:46:18.854Z,65.99
2023-05-19T01:47:18.824Z,65.86
2023-05-19T01:48:18.868Z,65.95
2023-05-19T01:49:18.880Z,66.20
2023-05-19T01:50:18.935Z,65.96
2023-05-19T01:51:19.001Z,66.17
2023-05-19T01:52:19.081Z,66.57
2023-05-19T01:53:19.140Z,66.44
2023-05-19T01:54:19.204Z,66.28
2023-05-19T01:55:19.286Z,66.54
2023-05-19T01:56:19.340Z,66.84
2023-05-19T01:57:19.380Z,66.44
2023-05-19T01:58:19.457Z,66.71
2023-05-19T01:59:19.497Z,66.53
2023-05-19T02:00:21.345Z,66.65
2023-05-19T02:01:19.573Z,66.48
2023-05-19T02:02:19.519Z,66.35
2023-05-19T02:03:19.511Z,66.27
2023-05-19T02:04:19.586Z,66.90
2023-05-19T02:05:19.542Z,66.55
2023-05-19T02:06:19.490Z,66.59
2023-05-19T02:07:19.468Z,66.33
2023-05-19T02:08:19.475Z,66.27
2023-05-19T02:09:19.426Z,66.12
2023-05-19T02:10:19.435Z,65.87
2023-05-19T02:11:19.414Z,65.79
2023-05-19T02:12:19.402Z,65.73
2023-05-19T02:13:19.401Z,65.65
2023-05-19T02:14:19.380Z,65.52
2023-05-19T02:15:19.367Z,65.36
2023-05-19T02:16:19.472Z,65.14
2023-05-19T02:17:19.340Z,65.07
2023-05-19T02:18:19.369Z,64.96
2023-05-19T02:19:19.443Z,64.90
2023-05-19T02:20:19.470Z,64.79
2023-05-19T02:21:19.495Z,64.78
2023-05-19T02:22:19.525Z,64.79
2023-05-19T02:23:19.568Z,64.79
2023-05-19T02:24:19.639Z,64.85
2023-05-19T02:25:19.631Z,64.86
2023-05-19T02:26:19.650Z,64.88
2023-05-19T02:27:19.651Z,64.97
2023-05-19T02:28:19.678Z,65.01
2023-05-19T02:29:19.751Z,65.09
2023-05-19T02:30:19.811Z,65.31
2023-05-19T02:31:19.840Z,65.25
2023-05-19T02:32:19.873Z,65.12
2023-05-19T02:33:19.815Z,65.16
2023-05-19T02:34:19.823Z,65.08
2023-05-19T02:35:19.869Z,64.94
2023-05-19T02:36:19.879Z,65.15
2023-05-19T02:37:19.933Z,65.09
2023-05-19T02:38:19.958Z,65.03
2023-05-19T02:39:20.011Z,64.89
2023-05-19T02:40:20.048Z,64.72
2023-05-19T02:41:20.112Z,64.68
2023-05-19T02:42:20.126Z,64.63
2023-05-19T02:43:20.160Z,64.64
2023-05-19T02:44:20.235Z,64.71
2023-05-19T02:45:20.220Z,64.89
2023-05-19T02:46:20.323Z,64.50
2023-05-19T02:47:20.286Z,64.45
2023-05-19T02:48:20.324Z,64.45
2023-05-19T02:49:20.357Z,64.40
2023-05-19T02:50:20.409Z,64.42
2023-05-19T02:51:20.421Z,64.37
2023-05-19T02:52:20.467Z,64.41
2023-05-19T02:53:20.492Z,64.53
2023-05-19T02:54:20.510Z,64.51
2023-05-19T02:55:20.532Z,64.37
2023-05-19T02:56:20.563Z,64.20
2023-05-19T02:57:20.601Z,63.98
2023-05-19T02:58:20.634Z,64.18
2023-05-19T02:59:20.662Z,64.17
2023-05-19T03:00:20.698Z,64.13
2023-05-19T03:01:20.852Z,64.11
2023-05-19T03:02:20.784Z,63.96
2023-05-19T03:03:20.977Z,63.82
2023-05-19T03:04:20.878Z,63.80
2023-05-19T03:05:20.958Z,63.83
2023-05-19T03:06:20.999Z,63.85
2023-05-19T03:07:21.036Z,63.79
2023-05-19T03:08:21.090Z,63.95
2023-05-19T03:09:21.120Z,63.93
2023-05-19T03:10:21.165Z,63.78
2023-05-19T03:11:21.287Z,63.82
2023-05-19T03:12:21.256Z,63.90
2023-05-19T03:13:21.306Z,64.15
2023-05-19T03:14:21.371Z,64.17
2023-05-19T03:15:21.406Z,64.14
2023-05-19T03:16:21.500Z,64.19
2023-05-19T03:17:21.618Z,64.20
2023-05-19T03:18:21.606Z,64.21
2023-05-19T03:19:21.741Z,64.27
2023-05-19T03:20:21.687Z,64.19
2023-05-19T03:21:21.793Z,64.22
2023-05-19T03:22:21.806Z,64.19
2023-05-19T03:23:21.866Z,64.07
2023-05-19T03:24:21.942Z,64.05
2023-05-19T03:25:21.970Z,64.28
2023-05-19T03:26:22.024Z,64.21
2023-05-19T03:27:22.099Z,63.96
2023-05-19T03:28:22.130Z,64.13
2023-05-19T03:29:22.185Z,64.21
2023-05-19T03:30:22.218Z,64.30
2023-05-19T03:31:22.283Z,64.21
2023-05-19T03:32:22.410Z,64.20
2023-05-19T03:33:22.573Z,64.29
2023-05-19T03:34:22.464Z,64.52
2023-05-19T03:35:22.510Z,64.63
2023-05-19T03:36:22.570Z,64.49
2023-05-19T03:37:22.648Z,64.36
2023-05-19T03:38:22.742Z,64.32
2023-05-19T03:39:22.746Z,64.51
2023-05-19T03:40:22.826Z,64.61
2023-05-19T03:41:22.857Z,64.26
2023-05-19T03:42:22.895Z,64.29
2023-05-19T03:43:22.906Z,64.51
2023-05-19T03:44:22.974Z,64.51
2023-05-19T03:45:23.007Z,64.57
2023-05-19T03:46:23.125Z,64.59
2023-05-19T03:47:23.117Z,64.44
2023-05-19T03:48:23.078Z,64.44
2023-05-19T03:49:23.083Z,64.54
2023-05-19T03:50:23.143Z,64.60
2023-05-19T03:51:23.194Z,64.67
2023-05-19T03:52:23.251Z,64.80
2023-05-19T03:53:23.296Z,64.88
2023-05-19T03:54:23.381Z,64.95
2023-05-19T03:55:23.406Z,64.95
2023-05-19T03:56:23.486Z,64.77
2023-05-19T03:57:23.522Z,64.67
2023-05-19T03:58:23.577Z,64.72
2023-05-19T03:59:23.622Z,64.69
2023-05-19T04:00:23.685Z,64.65
2023-05-19T04:01:23.719Z,64.66
2023-05-19T04:02:23.771Z,64.69
2023-05-19T04:03:23.860Z,64.78
2023-05-19T04:04:23.846Z,64.92
2023-05-19T04:05:23.834Z,64.98
2023-05-19T04:06:23.916Z,65.02
2023-05-19T04:07:23.973Z,65.03
2023-05-19T04:08:24.024Z,65.05
2023-05-19T04:09:24.085Z,65.21
2023-05-19T04:10:24.136Z,65.22
2023-05-19T04:11:24.207Z,65.11
2023-05-19T04:12:24.303Z,65.06
2023-05-19T04:13:24.286Z,64.99
2023-05-19T04:14:24.320Z,64.98
2023-05-19T04:15:24.425Z,64.90
2023-05-19T04:16:24.504Z,64.99
2023-05-19T04:17:24.457Z,64.88
2023-05-19T04:18:25.526Z,64.84
2023-05-19T04:19:24.599Z,64.81
2023-05-19T04:20:24.434Z,64.78
2023-05-19T04:21:24.412Z,64.80
2023-05-19T04:22:24.401Z,64.77
2023-05-19T04:23:24.382Z,64.79
2023-05-19T04:24:24.365Z,64.78
2023-05-19T04:25:24.350Z,64.58
2023-05-19T04:26:24.328Z,64.62
2023-05-19T04:27:24.311Z,64.51
2023-05-19T04:28:24.335Z,64.58
2023-05-19T04:29:24.313Z,64.49
2023-05-19T04:30:24.252Z,64.31
2023-05-19T04:31:24.373Z,64.20
2023-05-19T04:32:24.251Z,64.11
2023-05-19T04:33:24.186Z,64.12
2023-05-19T04:34:24.148Z,64.16
2023-05-19T04:35:24.117Z,64.08
2023-05-19T04:36:24.101Z,64.09
2023-05-19T04:37:24.084Z,63.92
2023-05-19T04:38:24.050Z,63.85
2023-05-19T04:39:24.022Z,63.69
2023-05-19T04:40:24.014Z,63.52
2023-05-19T04:41:23.993Z,63.31
2023-05-19T04:42:23.938Z,63.20
2023-05-19T04:43:23.909Z,63.09
2023-05-19T04:44:23.913Z,63.11
2023-05-19T04:45:23.863Z,62.94
2023-05-19T04:46:23.826Z,62.72
2023-05-19T04:47:23.839Z,62.62
2023-05-19T04:48:23.769Z,62.47
2023-05-19T04:49:23.793Z,62.48
2023-05-19T04:50:23.690Z,62.36
2023-05-19T04:51:23.662Z,62.32
2023-05-19T04:52:23.639Z,62.23
2023-05-19T04:53:23.596Z,62.29
2023-05-19T04:54:23.612Z,62.24
2023-05-19T04:55:23.631Z,62.08
2023-05-19T04:56:23.653Z,61.87
2023-05-19T04:57:23.689Z,61.82
2023-05-19T04:58:23.693Z,61.59
2023-05-19T04:59:23.659Z,61.60
2023-05-19T05:00:23.768Z,61.50
2023-05-19T05:01:23.768Z,61.59
2023-05-19T05:02:23.895Z,61.51
2023-05-19T05:03:23.926Z,61.52
2023-05-19T05:04:23.812Z,61.60
2023-05-19T05:05:23.853Z,61.55
2023-05-19T05:06:23.864Z,61.48
2023-05-19T05:07:23.882Z,61.26
2023-05-19T05:08:23.903Z,61.15
2023-05-19T05:09:23.930Z,61.06
2023-05-19T05:10:23.957Z,60.95
2023-05-19T05:11:23.980Z,61.16
2023-05-19T05:12:24.009Z,60.99
2023-05-19T05:13:24.040Z,60.92
2023-05-19T05:14:24.078Z,60.88
2023-05-19T05:15:24.106Z,60.83
2023-05-19T05:16:24.239Z,60.85
2023-05-19T05:17:24.198Z,60.84
2023-05-19T05:18:24.179Z,60.64
2023-05-19T05:19:24.226Z,60.72
2023-05-19T05:20:24.197Z,60.60
2023-05-19T05:21:24.202Z,60.19
2023-05-19T05:22:24.203Z,60.07
2023-05-19T05:23:24.211Z,59.88
2023-05-19T05:24:24.180Z,59.65
2023-05-19T05:25:24.182Z,59.64
2023-05-19T05:26:24.167Z,59.43
2023-05-19T05:27:24.167Z,59.47
2023-05-19T05:28:24.163Z,59.37
2023-05-19T05:29:24.146Z,59.25
2023-05-19T05:30:24.142Z,59.16
2023-05-19T05:31:24.107Z,59.07
2023-05-19T05:32:24.130Z,58.83
2023-05-19T05:33:24.203Z,58.72
2023-05-19T05:34:23.995Z,58.58
2023-05-19T05:35:23.962Z,58.38
2023-05-19T05:36:23.940Z,58.42
2023-05-19T05:37:23.888Z,57.97
2023-05-19T05:38:23.856Z,57.95
2023-05-19T05:39:23.811Z,58.01
2023-05-19T05:40:23.799Z,58.13
2023-05-19T05:41:23.779Z,57.90
2023-05-19T05:42:23.772Z,57.84
2023-05-19T05:43:23.745Z,57.69
2023-05-19T05:44:23.786Z,57.47
2023-05-19T05:45:23.797Z,57.53
2023-05-19T05:46:24.680Z,57.71
2023-05-19T05:47:23.740Z,57.59
2023-05-19T05:48:23.744Z,57.52
2023-05-19T05:49:23.697Z,57.17
2023-05-19T05:50:23.652Z,57.22
2023-05-19T05:51:23.642Z,57.14
2023-05-19T05:52:23.603Z,57.08
2023-05-19T05:53:23.601Z,57.06
2023-05-19T05:54:23.606Z,56.72
2023-05-19T05:55:23.626Z,56.42
2023-05-19T05:56:23.658Z,56.34
2023-05-19T05:57:23.706Z,56.32
2023-05-19T05:58:23.704Z,56.46
2023-05-19T05:59:23.725Z,56.40
2023-05-19T06:00:23.735Z,56.32
2023-05-19T06:01:23.721Z,56.36
2023-05-19T06:02:23.821Z,56.20
2023-05-19T06:03:23.960Z,56.11
2023-05-19T06:04:23.613Z,55.84
2023-05-19T06:05:23.622Z,56.10
2023-05-19T06:06:23.551Z,55.93
2023-05-19T06:07:23.515Z,55.80
2023-05-19T06:08:23.481Z,55.64
2023-05-19T06:09:23.483Z,55.70
2023-05-19T06:10:23.490Z,55.60
2023-05-19T06:11:23.487Z,55.40
2023-05-19T06:12:23.472Z,55.31
2023-05-19T06:13:23.437Z,55.38
2023-05-19T06:14:23.409Z,55.45
2023-05-19T06:15:23.381Z,55.39
2023-05-19T06:16:23.434Z,55.25
2023-05-19T06:17:23.384Z,55.28
2023-05-19T06:18:23.369Z,55.33
2023-05-19T06:19:23.429Z,55.14
2023-05-19T06:20:23.348Z,54.97
2023-05-19T06:21:23.308Z,55.02
2023-05-19T06:22:23.276Z,54.99
2023-05-19T06:23:23.262Z,54.89
2023-05-19T06:24:23.254Z,54.84
2023-05-19T06:25:23.232Z,55.13
2023-05-19T06:26:23.190Z,54.89
2023-05-19T06:27:23.158Z,54.81
2023-05-19T06:28:23.093Z,54.65
2023-05-19T06:29:23.040Z,54.33
2023-05-19T06:30:22.999Z,54.38
2023-05-19T06:31:23.027Z,54.47
2023-05-19T06:32:23.062Z,54.04
2023-05-19T06:33:22.997Z,54.14
2023-05-19T06:34:22.977Z,54.70
2023-05-19T06:35:22.916Z,54.31
2023-05-19T06:36:22.946Z,54.10
2023-05-19T06:37:22.909Z,54.05
2023-05-19T06:38:22.902Z,54.24
2023-05-19T06:39:22.912Z,53.58
2023-05-19T06:40:22.916Z,53.50
2023-05-19T06:41:22.881Z,54.03
2023-05-19T06:42:22.967Z,53.16
2023-05-19T06:43:22.894Z,53.02
2023-05-19T06:44:22.929Z,53.29
2023-05-19T06:45:22.875Z,53.68
2023-05-19T06:46:22.962Z,53.35
2023-05-19T06:47:22.898Z,52.63
2023-05-19T06:48:22.845Z,53.23
2023-05-19T06:49:22.814Z,53.42
2023-05-19T06:50:22.792Z,53.02
2023-05-19T06:51:22.795Z,52.77
2023-05-19T06:52:22.937Z,52.48
2023-05-19T06:53:22.808Z,52.78
2023-05-19T06:54:22.780Z,54.09
2023-05-19T06:55:22.782Z,54.13
2023-05-19T06:56:22.819Z,54.84
2023-05-19T06:57:23.198Z,55.45
2023-05-19T06:58:22.845Z,55.38
2023-05-19T06:59:22.881Z,55.74
2023-05-19T07:00:24.107Z,56.66
2023-05-19T07:01:23.000Z,57.45
2023-05-19T07:02:22.950Z,58.25
2023-05-19T07:03:23.075Z,58.49
2023-05-19T07:04:23.050Z,58.63
2023-05-19T07:05:23.093Z,58.37
2023-05-19T07:06:23.090Z,58.86
2023-05-19T07:07:23.106Z,58.69
2023-05-19T07:08:23.153Z,58.45
2023-05-19T07:09:23.095Z,58.50
2023-05-19T07:10:23.090Z,57.61
2023-05-19T07:11:23.144Z,57.30
2023-05-19T07:12:23.125Z,57.62
2023-05-19T07:13:24.417Z,58.46
2023-05-19T07:14:23.101Z,58.30
2023-05-19T07:15:23.087Z,57.77
2023-05-19T07:16:23.122Z,57.13
2023-05-19T07:17:23.104Z,57.34
2023-05-19T07:18:23.051Z,58.47
2023-05-19T07:19:23.137Z,58.64
2023-05-19T07:20:22.990Z,59.11
2023-05-19T07:21:22.971Z,59.97
2023-05-19T07:22:22.933Z,59.29
2023-05-19T07:23:22.896Z,58.83
2023-05-19T07:24:22.901Z,58.32
2023-05-19T07:25:22.810Z,58.79
2023-05-19T07:26:22.764Z,57.84
2023-05-19T07:27:22.705Z,56.92
2023-05-19T07:28:22.654Z,56.70
2023-05-19T07:29:22.595Z,56.54
2023-05-19T07:30:22.525Z,56.58
2023-05-19T07:31:22.534Z,55.56
2023-05-19T07:32:22.576Z,55.73
2023-05-19T07:33:22.415Z,56.23
2023-05-19T07:34:22.353Z,56.72
2023-05-19T07:35:22.330Z,56.39
2023-05-19T07:36:22.343Z,56.30
2023-05-19T07:37:22.300Z,56.06
2023-05-19T07:38:22.240Z,55.67
2023-05-19T07:39:23.093Z,55.77
2023-05-19T07:40:22.279Z,55.33
2023-05-19T07:41:22.080Z,54.99
2023-05-19T07:42:22.048Z,54.35
2023-05-19T07:43:22.026Z,54.00
2023-05-19T07:44:22.030Z,53.95
2023-05-19T07:45:21.954Z,54.31
2023-05-19T07:46:21.970Z,55.46
2023-05-19T07:47:21.899Z,55.35
2023-05-19T07:48:21.891Z,54.77
2023-05-19T07:49:21.845Z,54.15
2023-05-19T07:50:21.794Z,54.87
2023-05-19T07:51:21.817Z,55.16
2023-05-19T07:52:21.829Z,55.20
2023-05-19T07:53:21.821Z,54.72
2023-05-19T07:54:21.809Z,53.75
2023-05-19T07:55:21.835Z,54.19
2023-05-19T07:56:21.860Z,54.06
2023-05-19T07:57:21.829Z,53.89
2023-05-19T07:58:21.853Z,54.04
2023-05-19T07:59:21.858Z,53.68
2023-05-19T08:00:21.823Z,53.12
2023-05-19T08:01:21.782Z,52.91
2023-05-19T08:02:21.762Z,53.27
2023-05-19T08:03:21.785Z,53.20
2023-05-19T08:04:21.745Z,52.83
2023-05-19T08:05:21.647Z,52.49
2023-05-19T08:06:21.580Z,52.32
2023-05-19T08:07:21.532Z,52.12
2023-05-19T08:08:21.504Z,51.82
2023-05-19T08:09:21.472Z,51.33
2023-05-19T08:10:21.485Z,51.02
2023-05-19T08:11:21.409Z,51.67
2023-05-19T08:12:21.443Z,51.08
2023-05-19T08:13:21.382Z,51.11
2023-05-19T08:14:21.359Z,50.87
2023-05-19T08:15:21.362Z,50.98
2023-05-19T08:16:21.481Z,51.33
2023-05-19T08:17:21.337Z,50.96
2023-05-19T08:18:21.313Z,50.01
2023-05-19T08:19:21.442Z,50.20
2023-05-19T08:20:21.334Z,50.44
2023-05-19T08:21:21.332Z,50.20
2023-05-19T08:22:21.301Z,50.18
2023-05-19T08:23:21.284Z,49.35
2023-05-19T08:24:21.283Z,48.60
2023-05-19T08:25:21.296Z,49.34
2023-05-19T08:26:21.301Z,48.31
2023-05-19T08:27:21.298Z,48.65
2023-05-19T08:28:21.266Z,49.42
2023-05-19T08:29:21.250Z,49.21
2023-05-19T08:30:21.191Z,50.60
2023-05-19T08:31:21.224Z,49.45
2023-05-19T08:32:21.261Z,48.78
2023-05-19T08:33:21.114Z,48.54
2023-05-19T08:34:21.044Z,47.87
2023-05-19T08:35:20.985Z,46.37
2023-05-19T08:36:20.959Z,46.34
2023-05-19T08:37:20.946Z,45.95
2023-05-19T08:38:20.930Z,45.17
2023-05-19T08:39:20.916Z,45.30
2023-05-19T08:40:21.146Z,45.03
2023-05-19T08:41:20.813Z,45.26
2023-05-19T08:42:20.780Z,45.52
2023-05-19T08:43:20.716Z,45.05
2023-05-19T08:44:20.712Z,43.99
2023-05-19T08:45:20.529Z,43.37
2023-05-19T08:46:20.467Z,43.71
2023-05-19T08:47:20.357Z,43.26
2023-05-19T08:48:20.274Z,44.89
2023-05-19T08:49:20.210Z,43.73
2023-05-19T08:50:20.151Z,42.89
2023-05-19T08:51:20.080Z,43.04
2023-05-19T08:52:20.041Z,43.62
2023-05-19T08:53:32.324Z,43.42
2023-05-19T08:54:19.881Z,44.64
2023-05-19T08:55:19.791Z,43.30
2023-05-19T08:56:19.673Z,42.85
2023-05-19T08:57:19.567Z,42.13
2023-05-19T08:58:19.444Z,42.24
2023-05-19T08:59:19.318Z,42.53
2023-05-19T09:00:19.259Z,41.50
2023-05-19T09:01:19.192Z,41.38
2023-05-19T09:02:19.088Z,42.39
2023-05-19T09:03:23.742Z,42.61
2023-05-19T09:04:18.998Z,44.42
2023-05-19T09:05:18.758Z,44.52
2023-05-19T09:06:19.280Z,44.97
2023-05-19T09:07:18.627Z,43.25
2023-05-19T09:08:18.497Z,42.83
2023-05-19T09:09:18.420Z,43.54
2023-05-19T09:10:18.302Z,43.66
2023-05-19T09:11:18.218Z,43.74
2023-05-19T09:12:18.140Z,42.88
2023-05-19T09:13:18.052Z,43.48
2023-05-19T09:14:17.973Z,43.71
2023-05-19T09:15:17.887Z,43.61
2023-05-19T09:16:18.067Z,43.89
2023-05-19T09:17:17.731Z,44.23
2023-05-19T09:18:17.645Z,43.70
2023-05-19T09:19:17.587Z,43.57
2023-05-19T09:20:17.467Z,44.07
2023-05-19T09:21:17.369Z,43.70
2023-05-19T09:22:17.287Z,43.61
2023-05-19T09:23:17.272Z,43.20
2023-05-19T09:24:17.095Z,42.48
2023-05-19T09:25:17.008Z,42.51
2023-05-19T09:26:16.924Z,42.55
2023-05-19T09:27:16.800Z,43.02
2023-05-19T09:28:16.691Z,41.71
2023-05-19T09:29:16.629Z,41.71
2023-05-19T09:30:16.576Z,42.01
2023-05-19T09:31:16.419Z,43.03
2023-05-19T09:32:16.367Z,42.54
2023-05-19T09:33:16.296Z,43.86
2023-05-19T09:34:16.198Z,44.11
2023-05-19T09:35:16.209Z,45.12
2023-05-19T09:36:16.116Z,46.05
2023-05-19T09:37:16.038Z,45.12
2023-05-19T09:38:15.989Z,45.49
2023-05-19T09:39:15.964Z,45.62
2023-05-19T09:40:15.963Z,46.29
2023-05-19T09:41:15.944Z,45.69
2023-05-19T09:42:15.911Z,46.90
2023-05-19T09:43:15.886Z,46.30
2023-05-19T09:44:15.870Z,46.24
2023-05-19T09:45:15.830Z,46.37
2023-05-19T09:46:15.851Z,45.25
2023-05-19T09:47:15.749Z,46.30
2023-05-19T09:48:15.875Z,44.96
2023-05-19T09:49:15.713Z,45.03
2023-05-19T09:50:15.659Z,45.13
2023-05-19T09:51:15.612Z,44.34
2023-05-19T09:52:15.539Z,44.36
2023-05-19T09:53:15.510Z,45.47
2023-05-19T09:54:15.478Z,45.81
2023-05-19T09:55:15.441Z,44.99
2023-05-19T09:56:15.394Z,44.35
2023-05-19T09:57:15.273Z,45.26
2023-05-19T09:58:15.222Z,44.64
2023-05-19T09:59:15.155Z,44.57
2023-05-19T10:00:15.090Z,45.15
2023-05-19T10:01:15.065Z,43.66
2023-05-19T10:02:15.011Z,44.96
2023-05-19T10:03:15.016Z,45.99
2023-05-19T10:04:15.093Z,44.62
2023-05-19T10:05:15.009Z,43.21
2023-05-19T10:06:14.870Z,45.86
2023-05-19T10:07:14.830Z,46.07
2023-05-19T10:08:14.789Z,45.88
2023-05-19T10:09:14.759Z,45.94
2023-05-19T10:10:14.705Z,46.58
2023-05-19T10:11:14.663Z,46.91
2023-05-19T10:12:14.645Z,46.17
2023-05-19T10:13:14.634Z,44.83
2023-05-19T10:14:14.603Z,45.17
2023-05-19T10:15:14.563Z,45.10
2023-05-19T10:16:14.612Z,46.37
2023-05-19T10:17:14.527Z,45.84
2023-05-19T10:18:14.499Z,46.11
2023-05-19T10:19:14.501Z,45.96
2023-05-19T10:20:14.484Z,45.63
2023-05-19T10:21:14.382Z,44.73
2023-05-19T10:22:14.365Z,45.81
2023-05-19T10:23:14.322Z,45.67
2023-05-19T10:24:14.300Z,45.59
2023-05-19T10:25:14.261Z,46.42
2023-05-19T10:26:14.241Z,45.82
2023-05-19T10:27:14.206Z,46.30
2023-05-19T10:28:14.165Z,46.73
2023-05-19T10:29:14.147Z,46.70
2023-05-19T10:30:15.758Z,45.98
2023-05-19T10:31:14.012Z,45.96
2023-05-19T10:32:13.970Z,46.53
2023-05-19T10:33:13.950Z,48.19
2023-05-19T10:34:13.788Z,46.01
2023-05-19T10:35:13.695Z,46.57
2023-05-19T10:36:13.675Z,46.82
2023-05-19T10:37:13.561Z,46.71
2023-05-19T10:38:13.471Z,46.41
2023-05-19T10:39:13.397Z,48.09
2023-05-19T10:40:13.295Z,46.60
2023-05-19T10:41:13.235Z,45.89
2023-05-19T10:42:13.139Z,45.85
2023-05-19T10:43:13.048Z,45.25
2023-05-19T10:44:12.964Z,45.50
2023-05-19T10:45:12.894Z,46.22
2023-05-19T10:46:12.846Z,47.03
2023-05-19T10:47:12.898Z,47.54
2023-05-19T10:48:12.730Z,46.17
2023-05-19T10:49:12.572Z,45.72
2023-05-19T10:50:12.520Z,45.23
2023-05-19T10:51:12.439Z,45.47
2023-05-19T10:52:12.339Z,44.97
2023-05-19T10:53:12.221Z,45.49
2023-05-19T10:54:13.596Z,46.58
2023-05-19T10:55:12.009Z,45.42
2023-05-19T10:56:11.898Z,45.51
2023-05-19T10:57:11.804Z,44.55
2023-05-19T10:58:11.709Z,44.48
2023-05-19T10:59:11.611Z,44.89
2023-05-19T11:00:11.534Z,45.11
2023-05-19T11:01:11.418Z,45.98
2023-05-19T11:02:11.397Z,45.32
2023-05-19T11:03:11.303Z,46.83
2023-05-19T11:04:11.148Z,45.31
2023-05-19T11:05:11.041Z,45.11
2023-05-19T11:06:10.926Z,44.76
2023-05-19T11:07:10.836Z,45.22
2023-05-19T11:08:10.823Z,45.69
2023-05-19T11:09:10.706Z,46.22
2023-05-19T11:10:10.570Z,44.64
2023-05-19T11:11:10.475Z,44.85
2023-05-19T11:12:10.404Z,45.71
2023-05-19T11:13:10.319Z,45.96
2023-05-19T11:14:10.244Z,45.87
2023-05-19T11:15:10.181Z,47.24
2023-05-19T11:16:10.144Z,46.71
2023-05-19T11:17:10.065Z,46.61
2023-05-19T11:18:10.055Z,47.73
2023-05-19T11:19:09.962Z,48.25
2023-05-19T11:20:09.868Z,48.74
2023-05-19T11:21:09.812Z,46.80
2023-05-19T11:22:09.719Z,46.68
2023-05-19T11:23:09.824Z,46.66
2023-05-19T11:24:09.708Z,46.65
2023-05-19T11:25:09.483Z,48.54
2023-05-19T11:26:09.417Z,47.70
2023-05-19T11:27:09.342Z,47.24
2023-05-19T11:28:09.326Z,47.22
2023-05-19T11:29:09.288Z,46.80
2023-05-19T11:30:09.327Z,46.20
2023-05-19T11:31:09.230Z,47.41
2023-05-19T11:32:09.323Z,47.33
2023-05-19T11:33:09.270Z,48.11
2023-05-19T11:34:09.141Z,48.12
2023-05-19T11:35:09.103Z,48.36
2023-05-19T11:36:09.043Z,48.07
2023-05-19T11:37:09.003Z,47.47
2023-05-19T11:38:08.981Z,47.53
2023-05-19T11:39:08.941Z,49.50
2023-05-19T11:40:08.957Z,48.21
2023-05-19T11:41:08.913Z,48.79
2023-05-19T11:42:08.869Z,47.05
2023-05-19T11:43:08.838Z,48.97
2023-05-19T11:44:08.799Z,48.25
2023-05-19T11:45:08.754Z,49.48
2023-05-19T11:46:08.798Z,47.57
2023-05-19T11:47:08.825Z,48.87
2023-05-19T11:48:08.691Z,47.86
2023-05-19T11:49:08.640Z,48.11
2023-05-19T11:50:08.633Z,48.35
2023-05-19T11:51:08.620Z,48.59
2023-05-19T11:52:08.592Z,47.90
2023-05-19T11:53:08.548Z,46.89
2023-05-19T11:54:08.532Z,46.74
2023-05-19T11:55:08.516Z,46.28
2023-05-19T11:56:08.516Z,47.19
2023-05-19T11:57:08.456Z,46.33
2023-05-19T11:58:08.411Z,47.13
2023-05-19T11:59:08.385Z,48.05
2023-05-19T12:00:08.342Z,48.54
2023-05-19T12:01:08.336Z,47.31
2023-05-19T12:02:08.425Z,47.67
2023-05-19T12:03:08.882Z,46.89
2023-05-19T12:04:08.294Z,47.81
2023-05-19T12:05:08.241Z,49.01
2023-05-19T12:06:08.155Z,48.12
2023-05-19T12:07:08.114Z,47.72
2023-05-19T12:08:08.007Z,48.37
2023-05-19T12:09:07.942Z,49.69
2023-05-19T12:10:07.906Z,49.12
2023-05-19T12:11:07.887Z,48.72
2023-05-19T12:12:07.922Z,49.38
2023-05-19T12:13:07.834Z,49.27
2023-05-19T12:14:07.829Z,49.50
2023-05-19T12:15:07.818Z,49.50
2023-05-19T12:16:07.844Z,49.53
2023-05-19T12:17:07.779Z,50.33
2023-05-19T12:18:07.902Z,49.97
2023-05-19T12:19:07.790Z,50.26
2023-05-19T12:20:07.732Z,51.23
2023-05-19T12:21:07.712Z,51.27
2023-05-19T12:22:07.686Z,51.03
2023-05-19T12:23:07.688Z,50.95
2023-05-19T12:24:07.587Z,50.31
2023-05-19T12:25:07.624Z,50.69
2023-05-19T12:26:07.588Z,51.04
2023-05-19T12:27:07.526Z,50.70
2023-05-19T12:28:07.554Z,51.64
2023-05-19T12:29:07.515Z,51.37
2023-05-19T12:30:07.471Z,50.96
2023-05-19T12:31:07.437Z,51.11
2023-05-19T12:32:07.515Z,50.86
2023-05-19T12:33:07.394Z,51.40
2023-05-19T12:34:07.358Z,51.27
2023-05-19T12:35:07.363Z,51.18
2023-05-19T12:36:07.316Z,51.54
2023-05-19T12:37:07.307Z,51.41
2023-05-19T12:38:07.308Z,50.31
2023-05-19T12:39:07.215Z,50.58
2023-05-19T12:40:07.199Z,50.18
2023-05-19T12:41:07.157Z,50.51
2023-05-19T12:42:07.118Z,50.81
2023-05-19T12:43:07.104Z,50.98
2023-05-19T12:44:07.227Z,50.40
2023-05-19T12:45:07.048Z,50.37
2023-05-19T12:46:07.084Z,50.21
2023-05-19T12:47:06.979Z,50.93
2023-05-19T12:48:07.077Z,51.12
2023-05-19T12:49:06.919Z,51.40
2023-05-19T12:50:06.909Z,50.63
2023-05-19T12:51:06.875Z,50.77
2023-05-19T12:52:11.753Z,49.84